Time;durP1;ratioP1;P1;durP2;ratioP2;P2;SDS_P1;SDS_P2;PMS_P1;PMS_P2;Temp;Humidity;BMP_temperature;BMP_pressure;BME280_temperature;BME280_humidity;BME280_pressure;Samples;Min_cycle;Max_cycle;Signal;HPM_P1;HPM_P2
2021/06/10 00:01:05;;;;;;;7.58;3.12;;;;;;;10.58;90.22;93206.77;1787078;78;21038;-77
2021/06/10 00:03:32;;;;;;;4.15;3.37;;;;;;;10.49;90.62;93205.66;1773316;80;21061;-76
2021/06/10 00:05:58;;;;;;;3.55;3.25;;;;;;;10.40;90.75;93204.17;1774389;79;21101;-76
2021/06/10 00:08:25;;;;;;;6.35;3.30;;;;;;;10.37;91.29;93199.53;1780284;77;21102;-76
2021/06/10 00:10:54;;;;;;;6.45;3.55;;;;;;;10.38;91.18;93201.66;1847705;77;21080;-75
2021/06/10 00:13:20;;;;;;;7.67;3.35;;;;;;;10.33;91.07;93204.22;1852108;77;21005;-76
2021/06/10 00:15:48;;;;;;;3.15;2.87;;;;;;;10.26;91.23;93200.19;1843457;77;21119;-75
2021/06/10 00:18:14;;;;;;;3.65;3.20;;;;;;;10.25;91.62;93200.56;1813791;78;21184;-76
2021/06/10 00:20:41;;;;;;;4.33;3.37;;;;;;;10.32;91.55;93200.55;1787553;77;21136;-76
2021/06/10 00:23:08;;;;;;;3.67;3.10;;;;;;;10.39;91.21;93196.43;1852287;77;21377;-77
2021/06/10 00:25:35;;;;;;;3.62;3.33;;;;;;;10.41;90.68;93197.56;1839711;77;21022;-77
2021/06/10 00:28:01;;;;;;;4.12;3.00;;;;;;;10.36;90.42;93198.58;1847248;77;22170;-76
2021/06/10 00:30:28;;;;;;;3.60;3.30;;;;;;;10.29;90.63;93198.03;1819259;78;21292;-75
2021/06/10 00:32:55;;;;;;;3.72;3.42;;;;;;;10.25;90.91;93196.48;1841300;77;20941;-76
2021/06/10 00:35:23;;;;;;;3.08;2.75;;;;;;;10.28;91.00;93192.42;1852749;77;21112;-75
2021/06/10 00:37:50;;;;;;;3.62;3.15;;;;;;;10.31;90.50;93190.27;1837605;77;21537;-76
2021/06/10 00:40:17;;;;;;;4.95;3.42;;;;;;;10.37;90.09;93191.97;1848450;77;21064;-77
2021/06/10 00:42:44;;;;;;;3.92;3.37;;;;;;;10.38;89.49;93186.70;1807906;77;21054;-77
2021/06/10 00:45:14;;;;;;;5.58;3.27;;;;;;;10.37;89.22;93187.89;1736664;78;21030;-76
2021/06/10 00:47:42;;;;;;;3.20;2.90;;;;;;;10.32;89.07;93189.09;1778618;79;21010;-76
2021/06/10 00:50:09;;;;;;;3.47;3.17;;;;;;;10.27;89.13;93180.02;1783845;79;21035;-76
2021/06/10 00:52:36;;;;;;;3.30;3.00;;;;;;;10.21;88.85;93178.26;1839559;77;20950;-77
2021/06/10 00:55:03;;;;;;;3.55;3.10;;;;;;;10.10;89.09;93174.06;1848245;77;22191;-76
2021/06/10 00:57:30;;;;;;;3.50;3.20;;;;;;;10.04;89.53;93177.80;1846622;77;21094;-76
2021/06/10 00:59:56;;;;;;;3.05;2.75;;;;;;;10.00;89.54;93177.02;1839900;77;21512;-77
2021/06/10 01:02:23;;;;;;;2.90;2.50;;;;;;;9.91;89.69;93176.69;1852965;77;21559;-75
2021/06/10 01:04:49;;;;;;;3.37;3.00;;;;;;;9.82;90.04;93173.65;1837151;77;21329;-76
2021/06/10 01:07:54;;;;;;;4.87;3.22;;;;;;;9.72;90.34;93171.16;1846931;77;21462;-75
2021/06/10 01:10:46;;;;;;;3.22;2.80;;;;;;;9.65;90.80;93169.84;1840695;77;21054;-77
2021/06/10 01:13:27;;;;;;;3.42;3.12;;;;;;;9.57;91.38;93164.25;1795587;77;21057;-76
2021/06/10 01:15:58;;;;;;;3.67;3.37;;;;;;;9.61;91.83;93165.78;1782245;79;21045;-75
2021/06/10 01:18:25;;;;;;;4.92;3.10;;;;;;;9.66;91.72;93160.52;1734388;80;21050;-76
2021/06/10 01:20:52;;;;;;;3.33;3.12;;;;;;;9.72;91.28;93162.43;1810584;79;21086;-77
2021/06/10 01:23:39;;;;;;;4.53;3.08;;;;;;;9.76;90.90;93165.13;1852811;77;21034;-76
2021/06/10 01:26:26;;;;;;;3.10;2.90;;;;;;;9.72;91.09;93163.79;1837499;78;21093;-77
2021/06/10 01:28:53;;;;;;;4.03;3.62;;;;;;;9.66;91.09;93157.80;1851795;77;21539;-76
2021/06/10 01:31:19;;;;;;;2.72;2.52;;;;;;;9.67;91.45;93158.78;1842245;77;21022;-76
2021/06/10 01:33:55;;;;;;;6.30;3.37;;;;;;;9.69;90.94;93153.71;1843473;77;21153;-75
2021/06/10 01:36:31;;;;;;;5.78;3.52;;;;;;;9.65;90.97;93152.95;1831416;77;21034;-77
2021/06/10 01:39:00;;;;;;;5.78;3.30;;;;;;;9.66;91.11;93155.09;1756867;77;21493;-77
2021/06/10 01:41:26;;;;;;;4.62;2.80;;;;;;;9.67;90.88;93156.06;1852406;77;21022;-76
2021/06/10 01:43:53;;;;;;;6.20;2.90;;;;;;;9.68;90.83;93145.39;1812918;77;21033;-76
2021/06/10 01:46:27;;;;;;;4.55;3.02;;;;;;;9.72;90.73;93154.28;1846451;77;21117;-76
2021/06/10 01:48:53;;;;;;;4.87;3.60;;;;;;;9.75;90.51;93149.25;1844954;77;21038;-77
2021/06/10 01:51:24;;;;;;;3.72;3.02;;;;;;;9.78;90.46;93147.88;1816485;77;21804;-77
2021/06/10 01:53:50;;;;;;;2.80;2.60;;;;;;;9.82;90.15;93148.63;1852624;77;20996;-76
2021/06/10 01:56:17;;;;;;;3.90;3.10;;;;;;;9.83;89.70;93152.88;1837880;77;20995;-76
2021/06/10 01:58:44;;;;;;;3.95;3.50;;;;;;;9.75;89.40;93140.52;1849574;77;21115;-77
2021/06/10 02:01:11;;;;;;;3.72;2.55;;;;;;;9.68;89.58;93135.88;1818448;78;21398;-75
2021/06/10 02:03:38;;;;;;;4.28;2.55;;;;;;;9.63;89.48;93147.75;1817597;77;21042;-76
2021/06/10 02:06:05;;;;;;;3.25;2.95;;;;;;;9.51;89.56;93142.75;1786493;77;21117;-76
2021/06/10 02:08:31;;;;;;;4.50;2.92;;;;;;;9.39;89.99;93141.25;1844246;77;20944;-77
2021/06/10 02:10:58;;;;;;;5.10;2.72;;;;;;;9.36;90.67;93149.58;1851766;77;21088;-76
2021/06/10 02:13:27;;;;;;;3.27;2.98;;;;;;;9.39;90.67;93146.09;1848652;77;21026;-76
2021/06/10 02:15:56;;;;;;;5.47;3.52;;;;;;;9.37;90.28;93148.44;1848096;77;21005;-76
2021/06/10 02:18:22;;;;;;;3.67;3.35;;;;;;;9.36;90.35;93146.88;1838830;77;21057;-76
2021/06/10 02:20:49;;;;;;;7.10;4.78;;;;;;;9.34;90.42;93144.38;1781524;80;21077;-76
2021/06/10 02:23:15;;;;;;;7.42;3.20;;;;;;;9.34;90.88;93145.73;1839092;77;21069;-76
2021/06/10 02:25:42;;;;;;;6.45;4.70;;;;;;;9.35;90.81;93143.98;1797207;77;21058;-76
2021/06/10 02:28:09;;;;;;;6.00;4.10;;;;;;;9.34;91.15;93142.44;1783681;80;21065;-77
2021/06/10 02:30:38;;;;;;;4.62;3.60;;;;;;;9.38;91.11;93136.41;1812791;78;21073;-77
2021/06/10 02:33:05;;;;;;;3.90;3.45;;;;;;;9.43;91.10;93142.77;1812983;78;21571;-77
2021/06/10 02:35:31;;;;;;;3.33;3.00;;;;;;;9.48;90.80;93145.09;1742087;82;21914;-77
2021/06/10 02:38:00;;;;;;;3.40;3.10;;;;;;;9.53;90.64;93136.36;1795518;79;21027;-76
2021/06/10 02:40:36;;;;;;;4.45;3.77;;;;;;;9.55;90.24;93138.08;1811766;79;21026;-76
2021/06/10 02:43:05;;;;;;;4.92;4.33;;;;;;;9.54;90.18;93140.61;1809399;79;21564;-75
2021/06/10 02:45:34;;;;;;;7.28;5.05;;;;;;;9.50;90.52;93139.27;1803286;79;21045;-76
2021/06/10 02:48:01;;;;;;;8.43;5.55;;;;;;;9.49;90.56;93130.94;1815317;79;21861;-77
2021/06/10 02:50:28;;;;;;;6.75;4.05;;;;;;;9.43;90.49;93135.98;1800851;78;21085;-76
2021/06/10 02:52:55;;;;;;;5.25;3.17;;;;;;;9.40;90.47;93132.73;1810696;79;21615;-76
2021/06/10 02:55:22;;;;;;;3.45;3.15;;;;;;;9.33;90.57;93138.19;1807078;79;21053;-75
2021/06/10 02:57:52;;;;;;;6.53;3.27;;;;;;;9.27;91.01;93137.03;1770683;80;21037;-76
2021/06/10 03:00:21;;;;;;;5.72;3.15;;;;;;;9.30;91.35;93134.13;1813516;79;21089;-76
2021/06/10 03:02:50;;;;;;;3.05;2.85;;;;;;;9.37;91.04;93132.74;1801194;79;21030;-77
2021/06/10 03:05:17;;;;;;;3.50;3.20;;;;;;;9.42;90.91;93131.73;1778765;80;21030;-76
2021/06/10 03:07:44;;;;;;;4.47;4.08;;;;;;;9.46;90.76;93131.72;1805767;78;21493;-76
2021/06/10 03:10:12;;;;;;;4.72;4.30;;;;;;;9.48;90.54;93134.24;1806294;79;21042;-77
2021/06/10 03:12:39;;;;;;;5.97;4.90;;;;;;;9.46;90.42;93135.20;1812659;79;21150;-76
2021/06/10 03:15:09;;;;;;;10.88;5.00;;;;;;;9.45;90.69;93138.33;1774232;79;21452;-77
2021/06/10 03:17:35;;;;;;;8.83;5.25;;;;;;;9.43;90.60;93133.27;1813627;79;21429;-76
2021/06/10 03:20:04;;;;;;;5.72;4.17;;;;;;;9.42;90.68;93135.04;1803822;79;21018;-77
2021/06/10 03:22:31;;;;;;;4.25;3.55;;;;;;;9.41;90.61;93134.27;1771546;79;21057;-76
2021/06/10 03:24:57;;;;;;;3.72;3.27;;;;;;;9.42;90.75;93130.97;1743543;81;21514;-75
2021/06/10 03:27:24;;;;;;;3.77;3.45;;;;;;;9.42;90.52;93134.45;1720266;79;21070;-76
2021/06/10 03:29:50;;;;;;;5.67;3.30;;;;;;;9.43;90.61;93142.00;1826591;76;21061;-76
2021/06/10 03:32:17;;;;;;;4.30;3.90;;;;;;;9.42;90.58;93142.59;1847463;77;21018;-76
2021/06/10 03:34:44;;;;;;;3.90;3.60;;;;;;;9.41;90.49;93147.84;1811155;77;21093;-76
2021/06/10 03:37:10;;;;;;;4.97;4.08;;;;;;;9.43;90.53;93143.36;1756239;80;21133;-76
2021/06/10 03:39:37;;;;;;;4.70;3.83;;;;;;;9.37;90.29;93144.37;1783068;79;21635;-76
2021/06/10 03:42:07;;;;;;;4.50;4.10;;;;;;;9.36;90.55;93150.17;1782974;80;21595;-76
2021/06/10 03:44:33;;;;;;;5.40;4.05;;;;;;;9.32;90.50;93146.70;1835356;77;21034;-76
2021/06/10 03:47:00;;;;;;;6.70;4.78;;;;;;;9.29;90.84;93143.41;1817889;77;21539;-76
2021/06/10 03:49:27;;;;;;;6.05;4.55;;;;;;;9.32;91.44;93141.27;1823864;77;21213;-75
2021/06/10 03:51:53;;;;;;;6.33;4.70;;;;;;;9.41;91.61;93141.05;1724322;80;21162;-76
2021/06/10 03:54:20;;;;;;;7.85;4.40;;;;;;;9.47;91.45;93142.17;1809697;79;21013;-77
2021/06/10 03:56:47;;;;;;;5.50;4.85;;;;;;;9.55;91.49;93140.78;1812638;79;21077;-76
2021/06/10 03:59:14;;;;;;;6.60;3.90;;;;;;;9.61;91.71;93135.91;1763692;79;21018;-76
2021/06/10 04:01:41;;;;;;;3.95;3.50;;;;;;;9.67;91.51;93141.13;1774428;79;21089;-76
2021/06/10 04:04:08;;;;;;;7.40;5.60;;;;;;;9.72;91.21;93145.38;1809075;78;21085;-77
2021/06/10 04:06:37;;;;;;;7.37;6.15;;;;;;;9.70;90.79;93140.91;1813712;79;21021;-77
2021/06/10 04:09:08;;;;;;;7.15;5.45;;;;;;;9.67;90.90;93138.42;1800381;79;21030;-76
2021/06/10 04:11:40;;;;;;;7.12;4.92;;;;;;;9.66;91.08;93146.94;1752638;79;21050;-77
2021/06/10 04:14:06;;;;;;;5.85;5.25;;;;;;;9.66;91.46;93145.00;1743025;81;21768;-78
2021/06/10 04:16:34;;;;;;;9.18;6.53;;;;;;;9.69;91.76;93146.16;1767874;79;21034;-77
2021/06/10 04:19:01;;;;;;;6.87;5.80;;;;;;;9.75;91.90;93141.10;1850680;77;21152;-78
2021/06/10 04:21:28;;;;;;;7.50;6.03;;;;;;;9.79;92.05;93141.27;1845476;77;21547;-75
2021/06/10 04:23:54;;;;;;;5.90;5.30;;;;;;;9.87;92.09;93144.13;1852992;77;20950;-76
2021/06/10 04:26:22;;;;;;;6.55;5.60;;;;;;;9.95;91.80;93142.14;1847643;77;21078;-77
2021/06/10 04:28:49;;;;;;;6.20;5.50;;;;;;;10.00;91.58;93141.70;1816647;77;21572;-76
2021/06/10 04:31:17;;;;;;;7.50;4.20;;;;;;;10.08;91.55;93146.51;1725374;80;21120;-75
2021/06/10 04:36:10;;;;;;;6.80;4.92;;;;;;;10.16;90.89;93146.09;1860518;77;21010;-77
2021/06/10 04:38:38;;;;;;;7.12;5.75;;;;;;;10.18;91.00;93152.47;1799938;77;21130;-76
2021/06/10 04:41:06;;;;;;;7.85;6.40;;;;;;;10.20;91.06;93143.34;1813115;77;21022;-77
2021/06/10 04:43:32;;;;;;;8.88;6.00;;;;;;;10.22;90.93;93147.19;1832801;77;21017;-77
2021/06/10 04:45:59;;;;;;;8.10;6.17;;;;;;;10.26;90.72;93139.63;1846904;77;21022;-76
2021/06/10 04:48:26;;;;;;;7.17;5.55;;;;;;;10.30;91.24;93138.42;1844005;77;21089;-77
2021/06/10 04:50:53;;;;;;;6.10;4.85;;;;;;;10.36;91.09;93136.07;1850653;77;21575;-77
2021/06/10 04:53:21;;;;;;;7.42;5.03;;;;;;;10.45;91.00;93137.17;1777277;78;21073;-77
2021/06/10 04:55:48;;;;;;;4.67;3.45;;;;;;;10.55;90.83;93136.11;1837811;77;21010;-77
2021/06/10 04:58:15;;;;;;;4.55;3.70;;;;;;;10.64;90.50;93134.48;1813039;77;21639;-78
2021/06/10 05:00:42;;;;;;;4.58;3.20;;;;;;;10.76;90.49;93137.88;1850712;77;21065;-76
2021/06/10 05:03:09;;;;;;;3.40;3.10;;;;;;;10.90;90.62;93135.77;1837047;77;21749;-76
2021/06/10 05:05:39;;;;;;;3.72;3.10;;;;;;;11.01;90.46;93137.62;1846124;77;21408;-76
2021/06/10 05:08:06;;;;;;;3.70;3.40;;;;;;;11.11;90.19;93134.03;1774908;79;21141;-78
2021/06/10 05:10:32;;;;;;;5.55;4.42;;;;;;;11.21;89.99;93133.72;1759866;78;21050;-77
2021/06/10 05:12:59;;;;;;;6.95;5.10;;;;;;;11.27;89.61;93125.30;1804463;79;21074;-77
2021/06/10 05:15:26;;;;;;;5.72;4.85;;;;;;;11.31;89.22;93124.67;1824501;77;21117;-77
2021/06/10 05:17:52;;;;;;;8.45;5.22;;;;;;;11.35;89.40;93126.77;1792609;79;21301;-77
2021/06/10 05:20:19;;;;;;;7.37;5.33;;;;;;;11.43;89.33;93123.56;1778285;78;21084;-77
2021/06/10 05:22:45;;;;;;;8.15;5.08;;;;;;;11.58;89.20;93128.81;1846206;77;21599;-78
2021/06/10 05:25:12;;;;;;;4.60;4.20;;;;;;;11.80;90.00;93127.95;1836656;77;21081;-77
2021/06/10 05:27:39;;;;;;;5.50;4.33;;;;;;;12.01;89.64;93118.17;1850377;77;21045;-77
2021/06/10 05:30:08;;;;;;;4.85;3.22;;;;;;;12.20;88.26;93121.41;1786195;77;21074;-77
2021/06/10 05:32:34;;;;;;;7.75;4.12;;;;;;;12.37;87.86;93128.53;1813380;77;21995;-76
2021/06/10 05:35:01;;;;;;;4.45;4.00;;;;;;;12.48;87.53;93122.91;1837592;77;21029;-77
2021/06/10 05:37:27;;;;;;;5.28;4.42;;;;;;;12.56;86.85;93123.77;1834682;77;21219;-76
2021/06/10 05:39:54;;;;;;;7.25;4.03;;;;;;;12.69;86.79;93116.36;1850566;77;21508;-77
2021/06/10 05:42:20;;;;;;;4.42;3.90;;;;;;;12.77;86.47;93121.27;1836481;77;20907;-79
2021/06/10 05:44:46;;;;;;;3.95;3.55;;;;;;;12.82;85.58;93122.73;1794493;77;21148;-77
2021/06/10 05:47:13;;;;;;;3.85;3.55;;;;;;;12.84;85.48;93124.47;1770936;79;21454;-77
2021/06/10 05:49:40;;;;;;;4.80;4.15;;;;;;;12.82;85.23;93117.28;1734183;80;21065;-75
2021/06/10 05:52:06;;;;;;;4.40;4.00;;;;;;;12.79;84.65;93122.23;1707562;82;21148;-76
2021/06/10 05:54:33;;;;;;;8.35;5.20;;;;;;;12.80;84.83;93126.49;1835450;77;21721;-76
2021/06/10 05:56:59;;;;;;;5.97;4.70;;;;;;;12.87;85.10;93123.64;1847642;77;21547;-77
2021/06/10 05:59:28;;;;;;;5.47;4.22;;;;;;;12.98;85.90;93124.23;1842541;77;21026;-77
2021/06/10 06:01:54;;;;;;;4.00;3.62;;;;;;;13.10;84.93;93116.79;1821500;77;20993;-78
2021/06/10 06:04:20;;;;;;;4.35;3.92;;;;;;;13.27;85.38;93113.56;1767117;80;21120;-79
2021/06/10 06:06:48;;;;;;;3.70;3.40;;;;;;;13.60;85.42;93104.92;1773345;80;21085;-76
2021/06/10 06:09:15;;;;;;;4.67;3.50;;;;;;;13.91;84.74;93114.23;1832747;77;21030;-76
2021/06/10 06:11:42;;;;;;;3.35;3.05;;;;;;;14.12;82.77;93114.38;1849704;77;21012;-78
2021/06/10 06:14:11;;;;;;;3.00;2.70;;;;;;;14.38;78.47;93109.88;1845212;77;21030;-77
2021/06/10 06:16:43;;;;;;;3.77;3.45;;;;;;;14.61;77.72;93104.87;1812899;77;21109;-79
2021/06/10 06:19:12;;;;;;;4.55;3.25;;;;;;;14.93;77.59;93113.66;1850166;77;21014;-79
2021/06/10 06:21:40;;;;;;;4.08;2.80;;;;;;;15.22;76.53;93118.39;1838065;77;21603;-78
2021/06/10 06:24:07;;;;;;;3.58;3.02;;;;;;;15.36;75.79;93115.28;1791361;78;21066;-78
2021/06/10 06:26:34;;;;;;;4.47;3.45;;;;;;;15.50;75.32;93109.41;1803803;78;21469;-77
2021/06/10 06:29:02;;;;;;;4.80;4.30;;;;;;;15.75;75.07;93102.48;1815792;77;21082;-78
2021/06/10 06:31:30;;;;;;;4.30;3.90;;;;;;;16.04;74.65;93110.65;1851493;77;21547;-78
2021/06/10 06:34:03;;;;;;;4.80;3.60;;;;;;;16.19;73.28;93113.73;1837683;78;21458;-77
2021/06/10 06:36:30;;;;;;;5.60;4.65;;;;;;;16.29;72.68;93111.28;1819514;77;21030;-78
2021/06/10 06:38:57;;;;;;;4.25;3.85;;;;;;;16.34;72.24;93105.23;1810585;77;21018;-79
2021/06/10 06:41:30;;;;;;;5.30;4.75;;;;;;;16.36;71.47;93114.39;1821753;78;21123;-80
2021/06/10 06:43:58;;;;;;;6.72;4.03;;;;;;;16.37;71.46;93111.22;1719377;81;21069;-79
2021/06/10 06:46:27;;;;;;;4.90;4.45;;;;;;;16.44;70.79;93108.27;1805209;79;22074;-79
2021/06/10 06:48:54;;;;;;;4.35;3.95;;;;;;;16.56;71.73;93108.09;1812628;79;21155;-78
2021/06/10 06:51:20;;;;;;;5.40;4.22;;;;;;;16.69;72.10;93112.94;1827070;77;21469;-79
2021/06/10 06:53:49;;;;;;;5.65;4.28;;;;;;;16.83;71.45;93110.37;1845360;77;21069;-79
2021/06/10 06:56:25;;;;;;;6.35;5.75;;;;;;;16.99;71.00;93108.09;1844173;76;21058;-77
2021/06/10 06:58:53;;;;;;;7.62;5.53;;;;;;;17.19;70.18;93113.33;1814814;77;21097;-79
2021/06/10 07:01:20;;;;;;;5.20;4.50;;;;;;;17.35;69.90;93108.27;1803588;78;21085;-82
2021/06/10 07:03:50;;;;;;;5.55;3.92;;;;;;;17.45;69.08;93103.77;1845296;77;21045;-80
2021/06/10 07:06:17;;;;;;;4.33;3.90;;;;;;;17.54;68.47;93114.06;1846241;77;22065;-81
2021/06/10 07:08:45;;;;;;;4.83;4.42;;;;;;;17.61;66.90;93100.68;1846392;77;20994;-80
2021/06/10 07:11:12;;;;;;;5.97;4.70;;;;;;;17.70;66.25;93104.86;1836946;77;21108;-80
2021/06/10 07:13:38;;;;;;;4.42;4.03;;;;;;;17.77;66.40;93107.38;1757643;80;21073;-82
2021/06/10 07:16:05;;;;;;;3.80;3.35;;;;;;;17.85;65.89;93103.77;1846083;76;21065;-80
2021/06/10 07:18:31;;;;;;;5.40;3.80;;;;;;;17.90;65.53;93101.80;1786781;77;21147;-80
2021/06/10 07:20:58;;;;;;;4.40;3.50;;;;;;;17.89;62.91;93098.28;1847139;77;21076;-83
2021/06/10 07:23:31;;;;;;;3.95;3.65;;;;;;;17.78;62.30;93102.64;1846680;77;21057;-81
2021/06/10 07:25:58;;;;;;;3.92;3.30;;;;;;;17.68;61.21;93103.94;1829736;78;21054;-83
2021/06/10 07:28:26;;;;;;;4.20;3.80;;;;;;;17.54;60.46;93111.31;1711668;83;21611;-85
2021/06/10 07:30:57;;;;;;;4.17;3.80;;;;;;;17.42;61.34;93110.16;1806868;78;21081;-82
2021/06/10 07:33:25;;;;;;;6.75;4.40;;;;;;;17.42;61.00;93112.14;1817744;77;21077;-80
2021/06/10 07:35:54;;;;;;;4.50;3.95;;;;;;;17.45;61.68;93112.61;1847691;77;21339;-80
2021/06/10 07:38:21;;;;;;;4.25;3.95;;;;;;;17.45;60.58;93120.27;1787848;77;21529;-82
2021/06/10 07:40:50;;;;;;;5.78;4.10;;;;;;;17.40;60.64;93114.56;1822020;77;21025;-80
2021/06/10 07:43:17;;;;;;;4.10;3.70;;;;;;;17.33;60.64;93122.44;1847804;77;21088;-80
2021/06/10 07:45:43;;;;;;;6.78;5.03;;;;;;;17.19;60.48;93119.59;1837210;77;21105;-81
2021/06/10 07:48:10;;;;;;;4.25;3.95;;;;;;;17.05;61.99;93126.16;1844761;77;21027;-82
2021/06/10 07:50:37;;;;;;;6.92;4.97;;;;;;;16.97;61.96;93128.38;1848254;77;21000;-79
2021/06/10 07:53:04;;;;;;;5.45;4.92;;;;;;;16.89;61.48;93125.70;1839691;77;21538;-78
2021/06/10 07:55:31;;;;;;;4.95;4.10;;;;;;;16.77;62.67;93128.61;1841284;77;21117;-79
2021/06/10 07:58:01;;;;;;;4.05;3.25;;;;;;;16.72;62.24;93125.03;1830491;76;21107;-78
2021/06/10 08:00:26;;;;;;;3.55;3.25;;;;;;;16.71;62.12;93116.03;1831100;77;21054;-82
2021/06/10 08:02:58;;;;;;;4.35;3.17;;;;;;;16.83;63.75;93122.73;1848490;77;21049;-80
2021/06/10 08:05:22;;;;;;;4.00;3.35;;;;;;;17.05;63.31;93114.56;1826465;77;21124;-82
2021/06/10 08:07:49;;;;;;;3.72;3.27;;;;;;;17.24;61.28;93108.02;1831829;77;21102;-79
2021/06/10 08:10:15;;;;;;;4.30;3.92;;;;;;;17.43;60.94;93111.69;1778607;77;21046;-81
2021/06/10 08:12:42;;;;;;;4.95;3.27;;;;;;;17.59;60.48;93106.61;1827078;77;21045;-81
2021/06/10 08:15:09;;;;;;;4.10;3.70;;;;;;;17.77;59.36;93112.88;1844446;77;21540;-81
2021/06/10 08:17:36;;;;;;;7.42;5.45;;;;;;;17.87;57.35;93113.72;1839261;77;21005;-81
2021/06/10 08:20:07;;;;;;;5.90;3.80;;;;;;;17.84;57.09;93109.88;1851108;77;21080;-83
2021/06/10 08:22:33;;;;;;;6.15;4.78;;;;;;;17.90;57.37;93114.17;1775479;80;21094;-81
2021/06/10 08:25:02;;;;;;;6.53;5.03;;;;;;;17.96;57.39;93103.52;1800256;78;21552;-82
2021/06/10 08:27:29;;;;;;;5.25;4.67;;;;;;;18.06;56.79;93115.36;1799765;78;21130;-82
2021/06/10 08:29:57;;;;;;;5.42;4.10;;;;;;;18.17;58.25;93101.20;1787135;77;21041;-80
2021/06/10 08:32:23;;;;;;;5.28;4.08;;;;;;;18.29;58.24;93120.22;1822803;77;21531;-80
2021/06/10 08:34:50;;;;;;;4.80;3.85;;;;;;;18.34;54.58;93120.99;1775022;80;21178;-81
2021/06/10 08:37:17;;;;;;;7.92;5.58;;;;;;;18.21;54.53;93115.59;1834020;77;20993;-80
2021/06/10 08:39:44;;;;;;;5.22;4.47;;;;;;;17.99;54.86;93126.63;1809398;77;21117;-80
2021/06/10 08:42:10;;;;;;;4.92;4.17;;;;;;;17.83;55.64;93133.71;1804956;78;21123;-81
2021/06/10 08:44:37;;;;;;;4.87;3.70;;;;;;;17.75;55.54;93139.25;1797690;79;21172;-82
2021/06/10 08:47:07;;;;;;;3.92;3.00;;;;;;;17.75;56.70;93133.75;1743108;81;21058;-79
2021/06/10 08:49:33;;;;;;;3.60;3.30;;;;;;;17.78;55.66;93128.16;1796598;79;21058;-79
2021/06/10 08:52:00;;;;;;;3.62;3.10;;;;;;;17.83;56.89;93128.21;1707821;80;21066;-80
2021/06/10 08:54:26;;;;;;;3.12;2.90;;;;;;;17.85;58.04;93131.27;1732606;81;21117;-80
2021/06/10 08:56:53;;;;;;;4.37;3.27;;;;;;;17.85;57.71;93128.52;1745381;81;21109;-80
2021/06/10 08:59:19;;;;;;;3.60;3.40;;;;;;;17.79;57.03;93120.67;1784115;79;21543;-80
2021/06/10 09:01:46;;;;;;;4.83;3.17;;;;;;;17.69;57.94;93134.34;1801216;78;21126;-80
2021/06/10 09:04:14;;;;;;;4.12;3.33;;;;;;;17.57;57.71;93138.53;1714882;78;21051;-80
2021/06/10 09:06:50;;;;;;;2.98;2.77;;;;;;;17.46;57.61;93125.92;1738034;78;21065;-81
2021/06/10 09:09:23;;;;;;;4.50;2.80;;;;;;;17.38;58.02;93126.62;1786870;78;22239;-82
2021/06/10 09:11:49;;;;;;;4.50;4.08;;;;;;;17.30;57.52;93124.72;1825758;77;21104;-80
2021/06/10 09:14:16;;;;;;;5.67;3.60;;;;;;;17.36;58.98;93122.16;1771311;81;21039;-82
2021/06/10 09:16:44;;;;;;;4.22;2.98;;;;;;;17.52;58.07;93121.98;1759225;77;21018;-82
2021/06/10 09:19:14;;;;;;;5.03;3.33;;;;;;;17.69;59.10;93120.59;1741488;80;21085;-83
2021/06/10 09:21:48;;;;;;;3.30;3.02;;;;;;;17.85;60.23;93106.52;1743977;80;21045;-82
2021/06/10 09:24:31;;;;;;;4.03;3.33;;;;;;;18.00;58.87;93120.51;1770353;80;21053;-82
2021/06/10 09:27:10;;;;;;;3.87;3.58;;;;;;;18.11;58.48;93116.75;1792237;77;20963;-80
2021/06/10 09:29:51;;;;;;;3.37;3.08;;;;;;;18.17;58.11;93122.60;1846344;75;21201;-83
2021/06/10 09:32:30;;;;;;;4.22;3.92;;;;;;;18.20;57.98;93125.05;1791199;78;21033;-79
2021/06/10 09:35:22;;;;;;;10.10;6.67;;;;;;;18.16;58.26;93125.17;1787274;80;21156;-80
2021/06/10 09:37:49;;;;;;;4.75;4.28;;;;;;;18.11;58.45;93127.14;1720344;81;21465;-82
2021/06/10 09:40:19;;;;;;;5.67;5.08;;;;;;;18.02;57.06;93113.97;1739679;79;21989;-82
2021/06/10 09:42:45;;;;;;;6.92;5.33;;;;;;;18.00;56.67;93102.02;1736571;81;21066;-81
2021/06/10 09:45:15;;;;;;;6.53;5.20;;;;;;;18.08;57.05;93095.03;1791704;78;21046;-81
2021/06/10 09:47:51;;;;;;;4.37;3.65;;;;;;;18.18;56.48;93090.34;1817498;77;21052;-79
2021/06/10 09:50:32;;;;;;;3.35;3.08;;;;;;;18.26;57.46;93090.23;1752803;80;38948;-81
2021/06/10 09:53:13;;;;;;;4.67;3.33;;;;;;;18.37;55.74;93084.31;1777700;78;21208;-79
2021/06/10 09:55:52;;;;;;;3.15;2.95;;;;;;;18.48;57.88;93091.55;1815914;78;21037;-79
2021/06/10 09:58:22;;;;;;;4.00;3.60;;;;;;;18.53;55.51;93092.31;1780650;79;21065;-86
2021/06/10 10:00:51;;;;;;;6.35;4.67;;;;;;;18.44;56.36;93083.42;1783755;79;21125;-84
2021/06/10 10:03:29;;;;;;;4.12;3.72;;;;;;;18.39;53.80;93084.03;1774058;79;21046;-80
2021/06/10 10:06:04;;;;;;;2.98;2.77;;;;;;;18.35;53.21;93083.38;1789659;79;20988;-80
2021/06/10 10:08:29;;;;;;;5.67;3.17;;;;;;;18.38;52.15;93075.59;1781260;79;21084;-79
2021/06/10 10:11:03;;;;;;;2.77;2.58;;;;;;;18.47;52.54;93065.83;1739491;78;21046;-82
2021/06/10 10:13:31;;;;;;;3.00;2.70;;;;;;;18.56;53.13;93063.88;1814511;78;21088;-80
2021/06/10 10:15:59;;;;;;;4.00;3.65;;;;;;;18.66;55.01;93059.94;1805213;77;21648;-80
2021/06/10 10:18:25;;;;;;;4.30;3.90;;;;;;;18.71;54.63;93056.45;1759599;78;21089;-80
2021/06/10 10:20:52;;;;;;;6.50;3.10;;;;;;;18.76;55.48;93053.09;1777267;78;21658;-81
2021/06/10 10:23:18;;;;;;;3.22;2.62;;;;;;;18.84;54.93;93064.76;1816786;78;21026;-82
2021/06/10 10:25:46;;;;;;;3.60;3.25;;;;;;;18.86;54.24;93071.18;1803476;79;21892;-80
2021/06/10 10:28:14;;;;;;;2.85;2.65;;;;;;;18.79;53.42;93065.34;1715784;78;21113;-82
2021/06/10 10:30:44;;;;;;;2.62;2.42;;;;;;;18.69;52.55;93063.75;1758119;80;21076;-79
2021/06/10 10:33:19;;;;;;;2.75;2.55;;;;;;;18.58;52.74;93066.17;1756300;79;21073;-81
2021/06/10 10:35:58;;;;;;;3.25;2.42;;;;;;;18.52;52.86;93061.12;1742893;81;21057;-82
2021/06/10 10:38:36;;;;;;;5.08;2.55;;;;;;;18.42;53.77;93062.45;1754617;78;21610;-80
2021/06/10 10:41:15;;;;;;;2.83;2.62;;;;;;;18.36;57.46;93069.02;1818304;77;21545;-82
2021/06/10 10:43:42;;;;;;;2.70;2.50;;;;;;;18.32;56.56;93069.16;1802313;79;21081;-80
2021/06/10 10:46:18;;;;;;;3.22;2.65;;;;;;;18.17;56.31;93074.45;1818002;78;21033;-82
2021/06/10 10:48:48;;;;;;;4.25;3.45;;;;;;;18.05;57.12;93076.66;1806846;77;21018;-79
2021/06/10 10:51:36;;;;;;;3.22;3.02;;;;;;;17.94;57.88;93079.05;1813104;78;22266;-79
2021/06/10 10:54:07;;;;;;;6.00;3.25;;;;;;;17.90;58.72;93079.21;1812794;78;21076;-79
2021/06/10 10:56:36;;;;;;;4.58;3.25;;;;;;;17.90;58.75;93068.20;1806840;78;20997;-81
2021/06/10 10:59:16;;;;;;;4.22;3.83;;;;;;;17.98;58.52;93061.83;1785092;78;21005;-79
2021/06/10 11:01:49;;;;;;;6.37;3.20;;;;;;;18.11;56.92;93054.84;1802806;79;21555;-79
2021/06/10 11:04:57;;;;;;;3.02;2.77;;;;;;;18.24;57.66;93054.16;1803390;77;21164;-77
2021/06/10 11:07:42;;;;;;;3.17;2.75;;;;;;;18.37;58.87;93057.55;1751710;80;21194;-82
2021/06/10 11:10:15;;;;;;;3.87;3.42;;;;;;;18.54;57.45;93060.05;1769670;80;21077;-80
2021/06/10 11:12:50;;;;;;;;;;;;;;;18.61;55.48;93044.61;1780097;79;21089;-80
2021/06/10 11:15:34;;;;;;;2.85;2.65;;;;;;;18.53;54.97;93052.39;1728893;81;20190;-81
2021/06/10 11:18:07;;;;;;;3.50;3.27;;;;;;;18.39;56.40;93052.95;1736549;80;21160;-81
2021/06/10 11:20:41;;;;;;;3.98;3.50;;;;;;;18.24;57.77;93060.23;1750412;80;21659;-81
2021/06/10 11:25:50;;;;;;;3.90;3.60;;;;;;;17.98;58.85;93057.70;1777885;79;21089;-78
2021/06/10 11:28:21;;;;;;;3.60;3.30;;;;;;;17.88;58.13;93058.86;1732839;81;21746;-79
2021/06/10 11:30:54;;;;;;;3.35;3.15;;;;;;;17.75;58.26;93065.80;1744527;78;21106;-77
2021/06/10 11:33:25;;;;;;;3.55;3.00;;;;;;;17.70;59.55;93069.11;1769503;78;21041;-80
2021/06/10 11:36:03;;;;;;;3.42;3.12;;;;;;;17.67;59.77;93062.52;1785261;78;21042;-77
2021/06/10 11:38:47;;;;;;;5.37;3.40;;;;;;;17.69;59.99;93053.84;1790911;78;21554;-81
2021/06/10 11:41:16;;;;;;;3.72;2.83;;;;;;;17.70;60.06;93052.00;1775795;78;21116;-79
2021/06/10 11:43:53;;;;;;;6.00;5.40;;;;;;;17.76;59.66;93049.48;1749531;80;21058;-80
2021/06/10 11:46:20;;;;;;;10.00;7.22;;;;;;;17.83;59.58;93045.09;1783193;79;21070;-79
2021/06/10 11:48:55;;;;;;;4.67;4.15;;;;;;;17.94;60.60;93040.54;1790249;79;21072;-77
2021/06/10 11:51:31;;;;;;;3.65;3.35;;;;;;;18.13;59.75;93035.91;1750680;79;21104;-80